sensor_id;sensor_type;location;lat;lon;timestamp;pressure;altitude;pressure_sealevel;temperature;humidity
61292;BME280;47165;42.664;23.368;2022-08-25T00:02:07;94885.81;;;22.61;67.95
61292;BME280;47165;42.664;23.368;2022-08-25T00:04:34;94877.16;;;22.59;67.77
61292;BME280;47165;42.664;23.368;2022-08-25T00:07:01;94885.31;;;22.58;67.94
61292;BME280;47165;42.664;23.368;2022-08-25T00:09:27;94878.31;;;22.57;67.68
61292;BME280;47165;42.664;23.368;2022-08-25T00:11:53;94880.78;;;22.34;68.16
61292;BME280;47165;42.664;23.368;2022-08-25T00:14:24;94875.72;;;22.22;69.06
61292;BME280;47165;42.664;23.368;2022-08-25T00:16:50;94880.09;;;22.23;68.78
61292;BME280;47165;42.664;23.368;2022-08-25T00:19:19;94875.72;;;22.22;69.10
61292;BME280;47165;42.664;23.368;2022-08-25T00:21:46;94875.44;;;22.25;69.15
61292;BME280;47165;42.664;23.368;2022-08-25T00:24:13;94868.97;;;22.28;68.82
61292;BME280;47165;42.664;23.368;2022-08-25T00:26:42;94871.28;;;22.31;68.65
61292;BME280;47165;42.664;23.368;2022-08-25T00:29:09;94869.28;;;22.33;68.88
61292;BME280;47165;42.664;23.368;2022-08-25T00:31:34;94863.16;;;22.33;68.57
61292;BME280;47165;42.664;23.368;2022-08-25T00:34:00;94866.47;;;22.35;68.76
61292;BME280;47165;42.664;23.368;2022-08-25T00:36:25;94861.50;;;22.32;68.43
61292;BME280;47165;42.664;23.368;2022-08-25T00:38:52;94872.97;;;22.32;68.68
61292;BME280;47165;42.664;23.368;2022-08-25T00:41:21;94872.13;;;22.32;68.69
61292;BME280;47165;42.664;23.368;2022-08-25T00:43:51;94881.09;;;22.30;69.22
61292;BME280;47165;42.664;23.368;2022-08-25T00:46:21;94881.38;;;22.19;70.08
61292;BME280;47165;42.664;23.368;2022-08-25T00:48:51;94876.44;;;22.24;69.79
61292;BME280;47165;42.664;23.368;2022-08-25T00:51:41;94882.75;;;22.23;69.79
61292;BME280;47165;42.664;23.368;2022-08-25T00:54:12;94885.41;;;22.23;69.66
61292;BME280;47165;42.664;23.368;2022-08-25T00:56:40;94883.38;;;22.17;70.00
61292;BME280;47165;42.664;23.368;2022-08-25T00:59:06;94863.41;;;22.13;70.23
61292;BME280;47165;42.664;23.368;2022-08-25T01:01:32;94870.19;;;22.07;70.51
61292;BME280;47165;42.664;23.368;2022-08-25T01:03:57;94862.06;;;22.09;70.39
61292;BME280;47165;42.664;23.368;2022-08-25T01:06:23;94849.44;;;22.11;70.42
61292;BME280;47165;42.664;23.368;2022-08-25T01:08:50;94855.25;;;22.15;70.30
61292;BME280;47165;42.664;23.368;2022-08-25T01:11:16;94859.91;;;22.21;70.55
61292;BME280;47165;42.664;23.368;2022-08-25T01:13:44;94856.81;;;22.25;70.19
61292;BME280;47165;42.664;23.368;2022-08-25T01:16:14;94854.13;;;22.17;70.78
61292;BME280;47165;42.664;23.368;2022-08-25T01:18:49;94850.84;;;22.23;70.38
61292;BME280;47165;42.664;23.368;2022-08-25T01:21:17;94848.19;;;22.23;70.29
61292;BME280;47165;42.664;23.368;2022-08-25T01:23:44;94845.19;;;22.26;69.94
61292;BME280;47165;42.664;23.368;2022-08-25T01:26:17;94842.34;;;22.28;69.94
61292;BME280;47165;42.664;23.368;2022-08-25T01:28:45;94851.78;;;22.22;70.42
61292;BME280;47165;42.664;23.368;2022-08-25T01:31:30;94854.66;;;22.29;70.03
61292;BME280;47165;42.664;23.368;2022-08-25T01:33:56;94847.53;;;22.29;69.62
61292;BME280;47165;42.664;23.368;2022-08-25T01:36:23;94850.84;;;22.32;69.54
61292;BME280;47165;42.664;23.368;2022-08-25T01:38:50;94842.69;;;22.33;69.60
61292;BME280;47165;42.664;23.368;2022-08-25T01:44:10;94853.50;;;22.32;69.62
61292;BME280;47165;42.664;23.368;2022-08-25T01:46:36;94855.31;;;22.31;69.62
61292;BME280;47165;42.664;23.368;2022-08-25T01:49:03;94858.16;;;22.29;69.59
61292;BME280;47165;42.664;23.368;2022-08-25T01:51:34;94859.97;;;22.29;69.60
61292;BME280;47165;42.664;23.368;2022-08-25T01:54:01;94852.00;;;22.29;69.72
61292;BME280;47165;42.664;23.368;2022-08-25T01:56:27;94841.34;;;22.29;69.81
61292;BME280;47165;42.664;23.368;2022-08-25T01:58:52;94858.66;;;22.33;70.00
61292;BME280;47165;42.664;23.368;2022-08-25T02:01:21;94846.19;;;22.34;69.96
61292;BME280;47165;42.664;23.368;2022-08-25T02:03:49;94844.03;;;22.37;70.07
61292;BME280;47165;42.664;23.368;2022-08-25T02:06:18;94839.56;;;22.38;69.96
61292;BME280;47165;42.664;23.368;2022-08-25T02:08:44;94836.91;;;22.38;69.92
61292;BME280;47165;42.664;23.368;2022-08-25T02:11:13;94836.72;;;22.39;70.12
61292;BME280;47165;42.664;23.368;2022-08-25T02:13:40;94827.75;;;22.40;70.09
61292;BME280;47165;42.664;23.368;2022-08-25T02:16:07;94824.94;;;22.42;70.10
61292;BME280;47165;42.664;23.368;2022-08-25T02:18:33;94825.75;;;22.42;70.40
61292;BME280;47165;42.664;23.368;2022-08-25T02:20:58;94833.06;;;22.40;70.11
61292;BME280;47165;42.664;23.368;2022-08-25T02:23:24;94830.56;;;22.39;70.08
61292;BME280;47165;42.664;23.368;2022-08-25T02:25:51;94830.56;;;22.39;70.05
61292;BME280;47165;42.664;23.368;2022-08-25T02:28:16;94833.22;;;22.39;70.12
61292;BME280;47165;42.664;23.368;2022-08-25T02:30:42;94831.72;;;22.36;70.15
61292;BME280;47165;42.664;23.368;2022-08-25T02:33:09;94829.56;;;22.23;70.25
61292;BME280;47165;42.664;23.368;2022-08-25T02:35:35;94829.38;;;22.25;70.09
61292;BME280;47165;42.664;23.368;2022-08-25T02:38:01;94834.53;;;22.26;69.78
61292;BME280;47165;42.664;23.368;2022-08-25T02:40:26;94833.88;;;22.24;69.94
61292;BME280;47165;42.664;23.368;2022-08-25T02:42:52;94833.72;;;22.26;69.79
61292;BME280;47165;42.664;23.368;2022-08-25T02:45:18;94833.03;;;22.24;69.71
61292;BME280;47165;42.664;23.368;2022-08-25T02:47:44;94829.97;;;22.10;70.39
61292;BME280;47165;42.664;23.368;2022-08-25T02:50:10;94825.97;;;22.06;70.50
61292;BME280;47165;42.664;23.368;2022-08-25T02:52:36;94831.13;;;22.08;70.76
61292;BME280;47165;42.664;23.368;2022-08-25T02:55:07;94834.56;;;21.92;71.20
61292;BME280;47165;42.664;23.368;2022-08-25T02:57:33;94843.59;;;21.99;71.16
61292;BME280;47165;42.664;23.368;2022-08-25T02:59:58;94843.09;;;22.04;70.57
61292;BME280;47165;42.664;23.368;2022-08-25T03:02:25;94839.09;;;22.00;70.77
61292;BME280;47165;42.664;23.368;2022-08-25T03:04:51;94841.56;;;21.93;71.04
61292;BME280;47165;42.664;23.368;2022-08-25T03:07:18;94839.19;;;21.82;71.54
61292;BME280;47165;42.664;23.368;2022-08-25T03:09:44;94841.84;;;21.82;71.40
61292;BME280;47165;42.664;23.368;2022-08-25T03:12:10;94846.38;;;21.89;71.04
61292;BME280;47165;42.664;23.368;2022-08-25T03:14:37;94846.06;;;21.93;70.78
61292;BME280;47165;42.664;23.368;2022-08-25T03:17:04;94840.75;;;21.93;70.85
61292;BME280;47165;42.664;23.368;2022-08-25T03:19:29;94841.38;;;21.86;70.94
61292;BME280;47165;42.664;23.368;2022-08-25T03:21:55;94841.06;;;21.89;70.54
61292;BME280;47165;42.664;23.368;2022-08-25T03:24:22;94843.41;;;21.93;70.39
61292;BME280;47165;42.664;23.368;2022-08-25T03:26:48;94841.56;;;21.93;70.15
61292;BME280;47165;42.664;23.368;2022-08-25T03:29:26;94842.91;;;21.97;70.07
61292;BME280;47165;42.664;23.368;2022-08-25T03:31:53;94847.53;;;21.87;70.32
61292;BME280;47165;42.664;23.368;2022-08-25T03:34:20;94851.38;;;21.93;70.14
61292;BME280;47165;42.664;23.368;2022-08-25T03:36:47;94852.19;;;21.93;69.96
61292;BME280;47165;42.664;23.368;2022-08-25T03:39:35;94857.53;;;22.01;69.74
61292;BME280;47165;42.664;23.368;2022-08-25T03:42:02;94855.72;;;22.02;69.61
61292;BME280;47165;42.664;23.368;2022-08-25T03:44:28;94843.25;;;22.02;69.67
61292;BME280;47165;42.664;23.368;2022-08-25T03:46:54;94834.78;;;21.99;69.81
61292;BME280;47165;42.664;23.368;2022-08-25T03:49:22;94827.94;;;21.96;70.02
61292;BME280;47165;42.664;23.368;2022-08-25T03:51:49;94827.66;;;21.65;71.22
61292;BME280;47165;42.664;23.368;2022-08-25T03:54:19;94817.03;;;21.65;71.09
61292;BME280;47165;42.664;23.368;2022-08-25T03:56:45;94824.47;;;21.61;71.47
61292;BME280;47165;42.664;23.368;2022-08-25T03:59:10;94830.06;;;21.76;71.20
61292;BME280;47165;42.664;23.368;2022-08-25T04:01:37;94833.56;;;21.85;70.74
61292;BME280;47165;42.664;23.368;2022-08-25T04:04:04;94836.56;;;21.90;70.58
61292;BME280;47165;42.664;23.368;2022-08-25T04:06:30;94840.56;;;21.94;69.99
61292;BME280;47165;42.664;23.368;2022-08-25T04:08:55;94838.09;;;22.01;69.96
61292;BME280;47165;42.664;23.368;2022-08-25T04:11:23;94840.44;;;22.04;69.77
61292;BME280;47165;42.664;23.368;2022-08-25T04:13:50;94840.78;;;22.01;69.70
61292;BME280;47165;42.664;23.368;2022-08-25T04:16:22;94841.63;;;22.09;69.63
61292;BME280;47165;42.664;23.368;2022-08-25T04:18:50;94836.81;;;22.13;69.84
61292;BME280;47165;42.664;23.368;2022-08-25T04:21:17;94834.97;;;22.14;69.36
61292;BME280;47165;42.664;23.368;2022-08-25T04:23:46;94837.97;;;22.19;69.15
61292;BME280;47165;42.664;23.368;2022-08-25T04:28:40;94826.81;;;22.07;69.53
61292;BME280;47165;42.664;23.368;2022-08-25T04:31:10;94824.81;;;22.01;69.93
61292;BME280;47165;42.664;23.368;2022-08-25T04:33:36;94823.97;;;22.08;69.74
61292;BME280;47165;42.664;23.368;2022-08-25T04:36:04;94829.81;;;22.12;69.83
61292;BME280;47165;42.664;23.368;2022-08-25T04:38:31;94833.00;;;22.16;69.47
61292;BME280;47165;42.664;23.368;2022-08-25T04:40:57;94841.56;;;21.93;69.92
61292;BME280;47165;42.664;23.368;2022-08-25T04:43:23;94838.78;;;22.03;70.03
61292;BME280;47165;42.664;23.368;2022-08-25T04:45:49;94847.59;;;22.12;69.85
61292;BME280;47165;42.664;23.368;2022-08-25T04:48:15;94848.44;;;22.20;69.46
61292;BME280;47165;42.664;23.368;2022-08-25T04:50:40;94846.84;;;22.27;68.88
61292;BME280;47165;42.664;23.368;2022-08-25T04:53:06;94847.19;;;22.33;68.69
61292;BME280;47165;42.664;23.368;2022-08-25T04:55:31;94852.19;;;22.36;68.16
61292;BME280;47165;42.664;23.368;2022-08-25T04:57:56;94852.50;;;22.41;67.92
61292;BME280;47165;42.664;23.368;2022-08-25T05:00:22;94850.53;;;22.43;67.89
61292;BME280;47165;42.664;23.368;2022-08-25T05:02:47;94858.53;;;22.51;67.69
61292;BME280;47165;42.664;23.368;2022-08-25T05:05:13;94845.88;;;22.53;67.14
61292;BME280;47165;42.664;23.368;2022-08-25T05:07:39;94841.91;;;22.57;66.77
61292;BME280;47165;42.664;23.368;2022-08-25T05:10:04;94843.22;;;22.45;67.51
61292;BME280;47165;42.664;23.368;2022-08-25T05:12:30;94844.56;;;22.49;67.46
61292;BME280;47165;42.664;23.368;2022-08-25T05:14:55;94839.56;;;22.54;67.08
61292;BME280;47165;42.664;23.368;2022-08-25T05:17:41;94830.59;;;22.55;66.78
61292;BME280;47165;42.664;23.368;2022-08-25T05:20:07;94835.91;;;22.55;66.61
61292;BME280;47165;42.664;23.368;2022-08-25T05:22:32;94836.72;;;22.56;66.73
61292;BME280;47165;42.664;23.368;2022-08-25T05:24:57;94831.75;;;22.53;66.60
61292;BME280;47165;42.664;23.368;2022-08-25T05:27:24;94829.75;;;22.55;66.51
61292;BME280;47165;42.664;23.368;2022-08-25T05:29:49;94835.75;;;22.57;66.38
61292;BME280;47165;42.664;23.368;2022-08-25T05:32:14;94829.41;;;22.58;66.58
61292;BME280;47165;42.664;23.368;2022-08-25T05:34:40;94828.75;;;22.64;66.26
61292;BME280;47165;42.664;23.368;2022-08-25T05:37:05;94829.25;;;22.67;66.22
61292;BME280;47165;42.664;23.368;2022-08-25T05:39:32;94830.28;;;22.66;66.01
61292;BME280;47165;42.664;23.368;2022-08-25T05:41:58;94826.28;;;22.70;66.05
61292;BME280;47165;42.664;23.368;2022-08-25T05:44:23;94839.41;;;22.80;65.76
61292;BME280;47165;42.664;23.368;2022-08-25T05:46:49;94830.59;;;22.88;65.38
61292;BME280;47165;42.664;23.368;2022-08-25T05:49:15;94835.91;;;22.88;65.34
61292;BME280;47165;42.664;23.368;2022-08-25T05:51:40;94834.59;;;22.92;65.50
61292;BME280;47165;42.664;23.368;2022-08-25T05:54:06;94832.75;;;22.93;65.38
61292;BME280;47165;42.664;23.368;2022-08-25T05:56:31;94834.59;;;22.92;65.64
61292;BME280;47165;42.664;23.368;2022-08-25T05:58:57;94832.06;;;22.99;65.11
61292;BME280;47165;42.664;23.368;2022-08-25T06:01:26;94830.28;;;23.07;65.14
61292;BME280;47165;42.664;23.368;2022-08-25T06:04:12;94831.41;;;23.13;64.86
61292;BME280;47165;42.664;23.368;2022-08-25T06:06:38;94832.59;;;23.19;64.90
61292;BME280;47165;42.664;23.368;2022-08-25T06:09:04;94833.59;;;23.26;64.90
61292;BME280;47165;42.664;23.368;2022-08-25T06:11:31;94836.91;;;23.28;64.27
61292;BME280;47165;42.664;23.368;2022-08-25T06:13:56;94835.91;;;23.29;64.14
61292;BME280;47165;42.664;23.368;2022-08-25T06:16:21;94838.72;;;23.36;64.20
61292;BME280;47165;42.664;23.368;2022-08-25T06:18:47;94833.72;;;23.41;64.09
61292;BME280;47165;42.664;23.368;2022-08-25T06:21:13;94829.72;;;23.45;63.68
61292;BME280;47165;42.664;23.368;2022-08-25T06:23:39;94824.38;;;23.45;63.42
61292;BME280;47165;42.664;23.368;2022-08-25T06:26:06;94823.19;;;23.47;63.48
61292;BME280;47165;42.664;23.368;2022-08-25T06:28:33;94824.38;;;23.45;63.57
61292;BME280;47165;42.664;23.368;2022-08-25T06:31:00;94830.34;;;23.55;63.53
61292;BME280;47165;42.664;23.368;2022-08-25T06:33:26;94821.34;;;23.48;63.40
61292;BME280;47165;42.664;23.368;2022-08-25T06:35:55;94822.53;;;23.45;63.45
61292;BME280;47165;42.664;23.368;2022-08-25T06:38:21;94824.59;;;23.10;65.45
61292;BME280;47165;42.664;23.368;2022-08-25T06:40:47;94823.72;;;23.43;64.68
61292;BME280;47165;42.664;23.368;2022-08-25T06:43:13;94820.69;;;23.46;64.14
61292;BME280;47165;42.664;23.368;2022-08-25T06:45:40;94821.78;;;23.68;64.13
61292;BME280;47165;42.664;23.368;2022-08-25T06:48:06;94822.13;;;23.81;63.48
61292;BME280;47165;42.664;23.368;2022-08-25T06:50:32;94823.22;;;23.95;63.26
61292;BME280;47165;42.664;23.368;2022-08-25T06:52:57;94826.84;;;24.02;62.80
61292;BME280;47165;42.664;23.368;2022-08-25T06:55:22;94821.97;;;24.14;62.62
61292;BME280;47165;42.664;23.368;2022-08-25T06:57:51;94829.06;;;24.22;61.34
61292;BME280;47165;42.664;23.368;2022-08-25T07:00:17;94832.53;;;24.30;61.17
61292;BME280;47165;42.664;23.368;2022-08-25T07:02:43;94828.78;;;24.40;61.07
61292;BME280;47165;42.664;23.368;2022-08-25T07:05:08;94826.06;;;24.48;60.69
61292;BME280;47165;42.664;23.368;2022-08-25T07:07:35;94823.41;;;24.48;60.05
61292;BME280;47165;42.664;23.368;2022-08-25T07:10:01;94829.28;;;24.43;59.91
61292;BME280;47165;42.664;23.368;2022-08-25T07:12:27;94839.22;;;24.58;60.18
61292;BME280;47165;42.664;23.368;2022-08-25T07:14:52;94836.13;;;24.69;59.97
61292;BME280;47165;42.664;23.368;2022-08-25T07:17:18;94829.91;;;24.77;59.34
61292;BME280;47165;42.664;23.368;2022-08-25T07:19:43;94833.22;;;24.79;58.44
61292;BME280;47165;42.664;23.368;2022-08-25T07:22:09;94832.81;;;24.90;58.99
61292;BME280;47165;42.664;23.368;2022-08-25T07:24:34;94823.06;;;24.97;59.00
61292;BME280;47165;42.664;23.368;2022-08-25T07:27:00;94828.22;;;24.99;58.36
61292;BME280;47165;42.664;23.368;2022-08-25T07:29:27;94824.00;;;25.04;57.81
61292;BME280;47165;42.664;23.368;2022-08-25T07:31:53;94830.34;;;25.03;58.02
61292;BME280;47165;42.664;23.368;2022-08-25T07:34:19;94821.59;;;25.09;57.47
61292;BME280;47165;42.664;23.368;2022-08-25T07:37:03;94827.34;;;25.06;56.56
61292;BME280;47165;42.664;23.368;2022-08-25T07:39:33;94822.09;;;25.13;57.40
61292;BME280;47165;42.664;23.368;2022-08-25T07:41:59;94823.50;;;25.24;57.16
61292;BME280;47165;42.664;23.368;2022-08-25T07:44:25;94823.41;;;25.32;57.21
61292;BME280;47165;42.664;23.368;2022-08-25T07:46:51;94830.38;;;25.41;57.03
61292;BME280;47165;42.664;23.368;2022-08-25T07:49:18;94835.78;;;25.48;56.34
61292;BME280;47165;42.664;23.368;2022-08-25T07:51:44;94842.53;;;25.59;56.50
61292;BME280;47165;42.664;23.368;2022-08-25T07:54:10;94831.75;;;25.67;56.75
61292;BME280;47165;42.664;23.368;2022-08-25T07:56:36;94831.81;;;25.74;55.65
61292;BME280;47165;42.664;23.368;2022-08-25T07:59:02;94826.69;;;25.72;55.13
61292;BME280;47165;42.664;23.368;2022-08-25T08:01:27;94831.06;;;25.80;55.93
61292;BME280;47165;42.664;23.368;2022-08-25T08:03:53;94831.84;;;25.88;55.29
61292;BME280;47165;42.664;23.368;2022-08-25T08:06:21;94830.09;;;25.96;54.84
61292;BME280;47165;42.664;23.368;2022-08-25T08:08:48;94822.44;;;25.93;54.54
61292;BME280;47165;42.664;23.368;2022-08-25T08:13:45;94817.78;;;26.16;55.32
61292;BME280;47165;42.664;23.368;2022-08-25T08:16:13;94815.44;;;26.28;54.96
61292;BME280;47165;42.664;23.368;2022-08-25T08:18:42;94824.81;;;26.39;54.12
61292;BME280;47165;42.664;23.368;2022-08-25T08:21:28;94818.34;;;26.48;53.10
61292;BME280;47165;42.664;23.368;2022-08-25T08:23:55;94805.03;;;26.55;52.70
61292;BME280;47165;42.664;23.368;2022-08-25T08:26:21;94805.75;;;26.63;53.48
61292;BME280;47165;42.664;23.368;2022-08-25T08:28:49;94796.94;;;26.69;53.08
61292;BME280;47165;42.664;23.368;2022-08-25T08:31:18;94799.69;;;26.76;52.68
61292;BME280;47165;42.664;23.368;2022-08-25T08:33:45;94796.88;;;26.84;51.32
61292;BME280;47165;42.664;23.368;2022-08-25T08:36:11;94793.88;;;26.94;51.75
61292;BME280;47165;42.664;23.368;2022-08-25T08:38:39;94804.31;;;27.10;51.52
61292;BME280;47165;42.664;23.368;2022-08-25T08:52:57;94789.06;;;27.39;48.29
61292;BME280;47165;42.664;23.368;2022-08-25T08:55:32;94788.47;;;27.44;48.57
61292;BME280;47165;42.664;23.368;2022-08-25T08:58:03;94789.34;;;27.51;48.53
61292;BME280;47165;42.664;23.368;2022-08-25T09:00:30;94787.31;;;27.60;48.71
61292;BME280;47165;42.664;23.368;2022-08-25T09:03:04;94790.09;;;27.73;47.49
61292;BME280;47165;42.664;23.368;2022-08-25T09:05:35;94789.56;;;27.91;47.19
61292;BME280;47165;42.664;23.368;2022-08-25T09:08:09;94781.78;;;28.03;44.97
61292;BME280;47165;42.664;23.368;2022-08-25T09:11:01;94786.78;;;28.19;44.41
61292;BME280;47165;42.664;23.368;2022-08-25T09:16:20;94787.84;;;28.32;43.11
61292;BME280;47165;42.664;23.368;2022-08-25T09:25:04;94772.63;;;28.45;42.60
61292;BME280;47165;42.664;23.368;2022-08-25T09:30:18;94778.59;;;28.41;42.55
61292;BME280;47165;42.664;23.368;2022-08-25T09:32:50;94772.41;;;28.47;43.05
61292;BME280;47165;42.664;23.368;2022-08-25T09:35:29;94774.72;;;28.50;43.27
61292;BME280;47165;42.664;23.368;2022-08-25T09:38:09;94772.88;;;28.57;44.07
61292;BME280;47165;42.664;23.368;2022-08-25T09:40:47;94772.44;;;28.54;42.79
61292;BME280;47165;42.664;23.368;2022-08-25T09:43:35;94769.56;;;28.62;43.17
61292;BME280;47165;42.664;23.368;2022-08-25T09:51:24;94768.94;;;28.53;41.51
61292;BME280;47165;42.664;23.368;2022-08-25T09:56:52;94769.50;;;28.42;40.80
61292;BME280;47165;42.664;23.368;2022-08-25T10:01:51;94773.06;;;28.56;42.45
61292;BME280;47165;42.664;23.368;2022-08-25T10:04:35;94768.81;;;28.20;41.33
61292;BME280;47165;42.664;23.368;2022-08-25T10:07:04;94773.16;;;28.14;41.79
61292;BME280;47165;42.664;23.368;2022-08-25T10:09:42;94773.53;;;28.11;42.00
61292;BME280;47165;42.664;23.368;2022-08-25T10:12:20;94772.13;;;28.15;42.21
61292;BME280;47165;42.664;23.368;2022-08-25T10:14:49;94765.66;;;28.03;41.82
61292;BME280;47165;42.664;23.368;2022-08-25T10:17:24;94765.53;;;28.24;43.08
61292;BME280;47165;42.664;23.368;2022-08-25T10:19:51;94763.31;;;28.48;42.55
61292;BME280;47165;42.664;23.368;2022-08-25T10:22:26;94765.03;;;28.76;42.81
61292;BME280;47165;42.664;23.368;2022-08-25T10:25:02;94765.44;;;28.93;41.80
61292;BME280;47165;42.664;23.368;2022-08-25T10:30:21;94754.47;;;29.34;40.64
61292;BME280;47165;42.664;23.368;2022-08-25T10:33:12;94749.25;;;29.53;40.73
61292;BME280;47165;42.664;23.368;2022-08-25T10:44:12;94739.25;;;29.86;38.85
61292;BME280;47165;42.664;23.368;2022-08-25T10:49:50;94739.84;;;30.27;36.52
61292;BME280;47165;42.664;23.368;2022-08-25T10:52:46;94729.09;;;30.27;35.53
61292;BME280;47165;42.664;23.368;2022-08-25T10:55:19;94734.78;;;30.51;35.66
61292;BME280;47165;42.664;23.368;2022-08-25T10:57:59;94739.16;;;30.77;36.05
61292;BME280;47165;42.664;23.368;2022-08-25T11:00:37;94731.09;;;31.02;35.26
61292;BME280;47165;42.664;23.368;2022-08-25T11:03:21;94727.63;;;31.20;34.53
61292;BME280;47165;42.664;23.368;2022-08-25T11:06:04;94726.03;;;31.12;34.34
61292;BME280;47165;42.664;23.368;2022-08-25T11:08:41;94715.66;;;30.20;34.88
61292;BME280;47165;42.664;23.368;2022-08-25T11:11:41;94718.22;;;30.47;34.96
61292;BME280;47165;42.664;23.368;2022-08-25T11:14:36;94714.75;;;30.40;36.66
61292;BME280;47165;42.664;23.368;2022-08-25T11:17:27;94714.84;;;30.58;37.49
61292;BME280;47165;42.664;23.368;2022-08-25T11:20:04;94714.66;;;30.78;36.29
61292;BME280;47165;42.664;23.368;2022-08-25T11:22:41;94702.09;;;30.97;35.19
61292;BME280;47165;42.664;23.368;2022-08-25T11:27:44;94703.34;;;31.38;35.36
61292;BME280;47165;42.664;23.368;2022-08-25T11:30:13;94695.84;;;31.40;36.93
61292;BME280;47165;42.664;23.368;2022-08-25T11:32:43;94687.59;;;31.35;35.02
61292;BME280;47165;42.664;23.368;2022-08-25T11:35:12;94686.16;;;31.14;35.59
61292;BME280;47165;42.664;23.368;2022-08-25T11:37:58;94691.38;;;31.09;35.14
61292;BME280;47165;42.664;23.368;2022-08-25T11:40:39;94686.53;;;30.42;36.08
61292;BME280;47165;42.664;23.368;2022-08-25T11:46:19;94681.72;;;31.01;35.82
61292;BME280;47165;42.664;23.368;2022-08-25T11:51:57;94676.81;;;31.72;34.21
61292;BME280;47165;42.664;23.368;2022-08-25T11:54:26;94672.13;;;32.16;34.88
61292;BME280;47165;42.664;23.368;2022-08-25T11:57:01;94663.56;;;32.61;33.54
61292;BME280;47165;42.664;23.368;2022-08-25T12:02:36;94656.91;;;34.16;31.78
61292;BME280;47165;42.664;23.368;2022-08-25T12:05:51;94657.00;;;34.83;29.34
61292;BME280;47165;42.664;23.368;2022-08-25T12:13:50;94657.78;;;37.15;26.79
61292;BME280;47165;42.664;23.368;2022-08-25T12:16:36;94658.56;;;36.78;25.34
61292;BME280;47165;42.664;23.368;2022-08-25T12:21:56;94655.81;;;37.53;24.78
61292;BME280;47165;42.664;23.368;2022-08-25T12:30:15;94662.75;;;38.64;24.10
61292;BME280;47165;42.664;23.368;2022-08-25T12:36:04;94660.19;;;38.22;23.55
61292;BME280;47165;42.664;23.368;2022-08-25T12:41:23;94652.38;;;37.73;24.71
61292;BME280;47165;42.664;23.368;2022-08-25T12:43:52;94657.53;;;37.69;23.96
61292;BME280;47165;42.664;23.368;2022-08-25T12:51:49;94663.22;;;38.41;22.96
61292;BME280;47165;42.664;23.368;2022-08-25T12:54:21;94651.06;;;37.85;23.17
61292;BME280;47165;42.664;23.368;2022-08-25T12:56:56;94646.44;;;37.33;24.35
61292;BME280;47165;42.664;23.368;2022-08-25T12:59:42;94659.16;;;37.60;24.88
61292;BME280;47165;42.664;23.368;2022-08-25T13:02:54;94653.38;;;36.76;24.85
61292;BME280;47165;42.664;23.368;2022-08-25T13:11:12;94656.22;;;34.54;27.46
61292;BME280;47165;42.664;23.368;2022-08-25T13:16:51;94663.13;;;33.76;28.30
61292;BME280;47165;42.664;23.368;2022-08-25T13:19:19;94650.53;;;33.29;28.84
61292;BME280;47165;42.664;23.368;2022-08-25T13:21:45;94657.31;;;32.73;29.89
61292;BME280;47165;42.664;23.368;2022-08-25T13:24:18;94654.88;;;32.29;29.89
61292;BME280;47165;42.664;23.368;2022-08-25T13:26:47;94661.00;;;32.36;30.21
61292;BME280;47165;42.664;23.368;2022-08-25T13:29:20;94652.84;;;33.02;30.41
61292;BME280;47165;42.664;23.368;2022-08-25T13:31:53;94657.06;;;33.97;28.92
61292;BME280;47165;42.664;23.368;2022-08-25T13:34:24;94645.06;;;35.01;27.80
61292;BME280;47165;42.664;23.368;2022-08-25T13:36:51;94648.28;;;34.81;26.39
61292;BME280;47165;42.664;23.368;2022-08-25T13:39:36;94655.75;;;34.91;26.95
61292;BME280;47165;42.664;23.368;2022-08-25T13:42:05;94652.50;;;34.43;27.52
61292;BME280;47165;42.664;23.368;2022-08-25T13:44:36;94656.53;;;34.58;27.19
61292;BME280;47165;42.664;23.368;2022-08-25T13:47:11;94657.97;;;34.94;26.88
61292;BME280;47165;42.664;23.368;2022-08-25T13:49:40;94648.91;;;34.89;27.03
61292;BME280;47165;42.664;23.368;2022-08-25T13:52:06;94659.66;;;35.34;27.14
61292;BME280;47165;42.664;23.368;2022-08-25T13:54:40;94659.38;;;35.97;27.20
61292;BME280;47165;42.664;23.368;2022-08-25T13:57:24;94660.44;;;36.45;25.80
61292;BME280;47165;42.664;23.368;2022-08-25T13:59:54;94653.44;;;36.54;24.74
61292;BME280;47165;42.664;23.368;2022-08-25T14:02:46;94651.78;;;36.80;24.37
61292;BME280;47165;42.664;23.368;2022-08-25T14:05:15;94655.22;;;37.03;24.69
61292;BME280;47165;42.664;23.368;2022-08-25T14:07:55;94646.75;;;36.99;23.69
61292;BME280;47165;42.664;23.368;2022-08-25T14:10:37;94652.00;;;37.54;24.81
61292;BME280;47165;42.664;23.368;2022-08-25T14:13:10;94645.06;;;37.78;23.82
61292;BME280;47165;42.664;23.368;2022-08-25T14:15:36;94647.25;;;37.87;23.40
61292;BME280;47165;42.664;23.368;2022-08-25T14:18:17;94655.56;;;38.22;22.87
61292;BME280;47165;42.664;23.368;2022-08-25T14:20:50;94652.81;;;38.12;22.61
61292;BME280;47165;42.664;23.368;2022-08-25T14:23:21;94652.09;;;37.69;22.82
61292;BME280;47165;42.664;23.368;2022-08-25T14:25:49;94650.63;;;37.09;24.22
61292;BME280;47165;42.664;23.368;2022-08-25T14:28:18;94645.09;;;37.36;24.89
61292;BME280;47165;42.664;23.368;2022-08-25T14:30:52;94640.50;;;37.41;24.60
61292;BME280;47165;42.664;23.368;2022-08-25T14:33:21;94648.84;;;37.72;24.68
61292;BME280;47165;42.664;23.368;2022-08-25T14:35:49;94645.84;;;37.74;23.64
61292;BME280;47165;42.664;23.368;2022-08-25T14:38:15;94651.78;;;37.65;22.87
61292;BME280;47165;42.664;23.368;2022-08-25T14:40:43;94641.75;;;37.71;23.90
61292;BME280;47165;42.664;23.368;2022-08-25T14:43:09;94641.00;;;37.33;23.24
61292;BME280;47165;42.664;23.368;2022-08-25T14:45:38;94646.03;;;37.14;24.26
61292;BME280;47165;42.664;23.368;2022-08-25T14:48:07;94645.56;;;36.85;23.73